Terminal Aerodrome Forecast
Issued by NWS

Home | Current Version | Previous Version | Text Only | Print | Product List | Glossary Off
Versions: 1 2 3 4 5 6 7 8 9 10 11 12 13 14 15 16 17 18 19 20 21 22 23 24 25 26 27 28 29 30 31

000
FTUS43 KGRB 180300 AAA
TAFRHI
TAF AMD
KRHI 180309Z 1803/1824 05006KT P6SM SCT007 OVC013
      TEMPO 1803/1807 OVC007
     FM180700 07004KT P6SM SCT007 BKN012
      TEMPO 1807/1811 SCT012
     FM181600 12006KT P6SM SCT015 BKN025
     FM181800 12005KT P6SM SCT030 BKN050=

USA.gov is the U.S. government's official web portal to all federal, state and local government web resources and services.